sensor_id;sensor_type;location;lat;lon;timestamp;pressure;altitude;pressure_sealevel;temperature
74321;BMP280;62738;45.772;4.804;2023-06-05T01:03:16;99602.72;;;20.49
74321;BMP280;62738;45.772;4.804;2023-06-05T01:05:43;99598.66;;;20.70
74321;BMP280;62738;45.772;4.804;2023-06-05T01:08:10;99604.34;;;20.21
74321;BMP280;62738;45.772;4.804;2023-06-05T01:10:38;99607.41;;;20.42
74321;BMP280;62738;45.772;4.804;2023-06-05T01:13:17;99615.38;;;20.48
74321;BMP280;62738;45.772;4.804;2023-06-05T01:15:48;99614.31;;;20.73
74321;BMP280;62738;45.772;4.804;2023-06-05T01:18:15;99617.63;;;20.52
74321;BMP280;62738;45.772;4.804;2023-06-05T01:20:45;99612.47;;;20.13
74321;BMP280;62738;45.772;4.804;2023-06-05T01:23:11;99610.22;;;20.09
74321;BMP280;62738;45.772;4.804;2023-06-05T01:25:38;99609.72;;;20.15
74321;BMP280;62738;45.772;4.804;2023-06-05T01:28:13;99617.94;;;20.09
74321;BMP280;62738;45.772;4.804;2023-06-05T01:33:36;99609.22;;;19.87
74321;BMP280;62738;45.772;4.804;2023-06-05T01:36:11;99613.94;;;19.98
74321;BMP280;62738;45.772;4.804;2023-06-05T01:38:41;99612.31;;;19.93
74321;BMP280;62738;45.772;4.804;2023-06-05T01:41:10;99621.47;;;20.09
74321;BMP280;62738;45.772;4.804;2023-06-05T01:43:37;99618.03;;;20.11
74321;BMP280;62738;45.772;4.804;2023-06-05T01:46:05;99606.84;;;20.13
74321;BMP280;62738;45.772;4.804;2023-06-05T01:48:36;99614.50;;;20.10
74321;BMP280;62738;45.772;4.804;2023-06-05T01:51:05;99601.59;;;19.89
74321;BMP280;62738;45.772;4.804;2023-06-05T01:53:32;99609.00;;;20.14
74321;BMP280;62738;45.772;4.804;2023-06-05T01:55:59;99612.56;;;20.15
74321;BMP280;62738;45.772;4.804;2023-06-05T01:58:26;99617.66;;;20.03
74321;BMP280;62738;45.772;4.804;2023-06-05T02:00:54;99618.84;;;19.98
74321;BMP280;62738;45.772;4.804;2023-06-05T02:03:20;99619.00;;;19.86
74321;BMP280;62738;45.772;4.804;2023-06-05T02:05:47;99619.13;;;20.04
74321;BMP280;62738;45.772;4.804;2023-06-05T02:08:14;99628.34;;;20.22
74321;BMP280;62738;45.772;4.804;2023-06-05T02:10:43;99625.47;;;20.04
74321;BMP280;62738;45.772;4.804;2023-06-05T02:13:10;99624.81;;;19.90
74321;BMP280;62738;45.772;4.804;2023-06-05T02:15:37;99627.75;;;20.08
74321;BMP280;62738;45.772;4.804;2023-06-05T02:18:04;99625.84;;;19.81
74321;BMP280;62738;45.772;4.804;2023-06-05T02:20:34;99621.19;;;19.56
74321;BMP280;62738;45.772;4.804;2023-06-05T02:23:02;99622.00;;;19.43
74321;BMP280;62738;45.772;4.804;2023-06-05T02:25:31;99635.75;;;19.98
74321;BMP280;62738;45.772;4.804;2023-06-05T02:27:58;99628.22;;;19.71
74321;BMP280;62738;45.772;4.804;2023-06-05T02:30:25;99622.75;;;19.90
74321;BMP280;62738;45.772;4.804;2023-06-05T02:32:51;99629.81;;;20.07
74321;BMP280;62738;45.772;4.804;2023-06-05T02:35:28;99618.94;;;20.00
74321;BMP280;62738;45.772;4.804;2023-06-05T02:37:55;99626.38;;;20.09
74321;BMP280;62738;45.772;4.804;2023-06-05T02:40:23;99621.03;;;19.83
74321;BMP280;62738;45.772;4.804;2023-06-05T02:42:50;99616.31;;;19.88
74321;BMP280;62738;45.772;4.804;2023-06-05T02:45:16;99614.69;;;19.67
74321;BMP280;62738;45.772;4.804;2023-06-05T02:47:43;99619.91;;;19.43
74321;BMP280;62738;45.772;4.804;2023-06-05T02:50:11;99608.78;;;19.45
74321;BMP280;62738;45.772;4.804;2023-06-05T02:52:38;99601.94;;;19.35
74321;BMP280;62738;45.772;4.804;2023-06-05T02:55:06;99596.25;;;19.48
74321;BMP280;62738;45.772;4.804;2023-06-05T02:57:34;99595.03;;;19.38
74321;BMP280;62738;45.772;4.804;2023-06-05T03:00:09;99599.22;;;19.37
74321;BMP280;62738;45.772;4.804;2023-06-05T03:02:36;99605.41;;;19.49
74321;BMP280;62738;45.772;4.804;2023-06-05T03:05:04;99606.16;;;19.50
74321;BMP280;62738;45.772;4.804;2023-06-05T03:07:30;99606.69;;;19.62
74321;BMP280;62738;45.772;4.804;2023-06-05T03:10:01;99607.94;;;19.43
74321;BMP280;62738;45.772;4.804;2023-06-05T03:12:27;99602.50;;;19.47
74321;BMP280;62738;45.772;4.804;2023-06-05T03:14:54;99601.75;;;19.31
74321;BMP280;62738;45.772;4.804;2023-06-05T03:17:21;99604.78;;;19.06
74321;BMP280;62738;45.772;4.804;2023-06-05T03:19:49;99600.72;;;19.24
74321;BMP280;62738;45.772;4.804;2023-06-05T03:22:17;99598.28;;;19.17
74321;BMP280;62738;45.772;4.804;2023-06-05T03:24:45;99595.34;;;19.15
74321;BMP280;62738;45.772;4.804;2023-06-05T03:27:12;99600.72;;;19.09
74321;BMP280;62738;45.772;4.804;2023-06-05T03:29:39;99598.56;;;19.23
74321;BMP280;62738;45.772;4.804;2023-06-05T03:32:06;99592.72;;;19.48
74321;BMP280;62738;45.772;4.804;2023-06-05T03:34:32;99602.34;;;19.59
74321;BMP280;62738;45.772;4.804;2023-06-05T03:37:03;99605.31;;;19.63
74321;BMP280;62738;45.772;4.804;2023-06-05T03:39:30;99605.41;;;19.49
74321;BMP280;62738;45.772;4.804;2023-06-05T03:41:57;99600.28;;;19.30
74321;BMP280;62738;45.772;4.804;2023-06-05T03:44:24;99600.84;;;19.42
74321;BMP280;62738;45.772;4.804;2023-06-05T03:46:51;99607.44;;;19.17
74321;BMP280;62738;45.772;4.804;2023-06-05T03:49:18;99606.91;;;19.21
74321;BMP280;62738;45.772;4.804;2023-06-05T03:51:46;99603.22;;;19.32
74321;BMP280;62738;45.772;4.804;2023-06-05T03:54:13;99607.44;;;19.33
74321;BMP280;62738;45.772;4.804;2023-06-05T03:56:43;99602.13;;;19.39
74321;BMP280;62738;45.772;4.804;2023-06-05T03:59:16;99606.41;;;19.40
74321;BMP280;62738;45.772;4.804;2023-06-05T04:01:46;99601.59;;;19.58
74321;BMP280;62738;45.772;4.804;2023-06-05T04:04:13;99611.13;;;19.51
74321;BMP280;62738;45.772;4.804;2023-06-05T04:06:39;99614.09;;;19.39
74321;BMP280;62738;45.772;4.804;2023-06-05T04:09:09;99613.03;;;19.46
74321;BMP280;62738;45.772;4.804;2023-06-05T04:11:40;99612.84;;;19.58
74321;BMP280;62738;45.772;4.804;2023-06-05T04:14:08;99612.06;;;19.71
74321;BMP280;62738;45.772;4.804;2023-06-05T04:16:36;99612.31;;;19.62
74321;BMP280;62738;45.772;4.804;2023-06-05T04:19:10;99611.94;;;19.69
74321;BMP280;62738;45.772;4.804;2023-06-05T04:21:38;99612.97;;;19.76
74321;BMP280;62738;45.772;4.804;2023-06-05T04:24:05;99618.06;;;19.79
74321;BMP280;62738;45.772;4.804;2023-06-05T04:26:39;99630.84;;;19.98
74321;BMP280;62738;45.772;4.804;2023-06-05T04:29:08;99617.88;;;20.24
74321;BMP280;62738;45.772;4.804;2023-06-05T04:31:43;99617.47;;;19.98
74321;BMP280;62738;45.772;4.804;2023-06-05T04:34:10;99603.94;;;20.11
74321;BMP280;62738;45.772;4.804;2023-06-05T04:36:37;99612.41;;;20.11
74321;BMP280;62738;45.772;4.804;2023-06-05T04:39:04;99610.31;;;19.95
74321;BMP280;62738;45.772;4.804;2023-06-05T04:41:33;99616.97;;;20.20
74321;BMP280;62738;45.772;4.804;2023-06-05T04:44:02;99631.72;;;20.03
74321;BMP280;62738;45.772;4.804;2023-06-05T04:46:29;99633.19;;;20.04
74321;BMP280;62738;45.772;4.804;2023-06-05T04:48:56;99631.72;;;20.03
74321;BMP280;62738;45.772;4.804;2023-06-05T04:51:24;99638.28;;;20.07
74321;BMP280;62738;45.772;4.804;2023-06-05T04:53:51;99638.25;;;20.23
74321;BMP280;62738;45.772;4.804;2023-06-05T04:56:22;99635.88;;;20.17
74321;BMP280;62738;45.772;4.804;2023-06-05T04:58:49;99641.19;;;20.09
74321;BMP280;62738;45.772;4.804;2023-06-05T05:01:17;99637.72;;;19.64
74321;BMP280;62738;45.772;4.804;2023-06-05T05:03:44;99638.09;;;20.03
74321;BMP280;62738;45.772;4.804;2023-06-05T05:06:16;99639.34;;;20.16
74321;BMP280;62738;45.772;4.804;2023-06-05T05:08:43;99640.44;;;19.46
74321;BMP280;62738;45.772;4.804;2023-06-05T05:11:12;99627.41;;;20.33
74321;BMP280;62738;45.772;4.804;2023-06-05T05:13:39;99630.50;;;20.39
74321;BMP280;62738;45.772;4.804;2023-06-05T05:16:06;99642.22;;;20.33
74321;BMP280;62738;45.772;4.804;2023-06-05T05:18:35;99636.13;;;20.06
74321;BMP280;62738;45.772;4.804;2023-06-05T05:21:03;99633.56;;;19.49
74321;BMP280;62738;45.772;4.804;2023-06-05T05:23:32;99636.91;;;20.57
74321;BMP280;62738;45.772;4.804;2023-06-05T05:26:02;99636.94;;;20.41
74321;BMP280;62738;45.772;4.804;2023-06-05T05:28:28;99636.63;;;20.51
74321;BMP280;62738;45.772;4.804;2023-06-05T05:30:55;99639.50;;;21.22
74321;BMP280;62738;45.772;4.804;2023-06-05T05:33:25;99632.16;;;21.32
74321;BMP280;62738;45.772;4.804;2023-06-05T05:35:51;99638.06;;;21.21
74321;BMP280;62738;45.772;4.804;2023-06-05T05:38:18;99636.59;;;20.84
74321;BMP280;62738;45.772;4.804;2023-06-05T05:40:45;99638.81;;;21.59
74321;BMP280;62738;45.772;4.804;2023-06-05T05:43:11;99644.56;;;21.43
74321;BMP280;62738;45.772;4.804;2023-06-05T05:45:38;99643.38;;;21.87
74321;BMP280;62738;45.772;4.804;2023-06-05T05:48:07;99648.66;;;21.97
74321;BMP280;62738;45.772;4.804;2023-06-05T05:50:34;99649.81;;;21.70
74321;BMP280;62738;45.772;4.804;2023-06-05T05:53:00;99647.94;;;21.77
74321;BMP280;62738;45.772;4.804;2023-06-05T05:55:27;99648.81;;;21.81
74321;BMP280;62738;45.772;4.804;2023-06-05T05:57:54;99655.56;;;21.92
74321;BMP280;62738;45.772;4.804;2023-06-05T06:00:21;99649.84;;;21.90
74321;BMP280;62738;45.772;4.804;2023-06-05T06:02:48;99652.94;;;21.98
74321;BMP280;62738;45.772;4.804;2023-06-05T06:05:14;99654.47;;;21.81
74321;BMP280;62738;45.772;4.804;2023-06-05T06:07:41;99653.91;;;22.46
74321;BMP280;62738;45.772;4.804;2023-06-05T06:10:10;99649.59;;;22.23
74321;BMP280;62738;45.772;4.804;2023-06-05T06:12:39;99656.97;;;22.32
74321;BMP280;62738;45.772;4.804;2023-06-05T06:15:07;99652.88;;;22.79
74321;BMP280;62738;45.772;4.804;2023-06-05T06:17:34;99653.41;;;22.73
74321;BMP280;62738;45.772;4.804;2023-06-05T06:20:02;99651.31;;;22.74
74321;BMP280;62738;45.772;4.804;2023-06-05T06:22:29;99653.41;;;22.73
74321;BMP280;62738;45.772;4.804;2023-06-05T06:24:56;99657.81;;;23.00
74321;BMP280;62738;45.772;4.804;2023-06-05T06:27:23;99653.41;;;23.19
74321;BMP280;62738;45.772;4.804;2023-06-05T06:29:53;99652.59;;;23.14
74321;BMP280;62738;45.772;4.804;2023-06-05T06:32:20;99647.94;;;23.25
74321;BMP280;62738;45.772;4.804;2023-06-05T06:34:48;99661.00;;;22.90
74321;BMP280;62738;45.772;4.804;2023-06-05T06:37:15;99658.53;;;23.01
74321;BMP280;62738;45.772;4.804;2023-06-05T06:39:43;99661.81;;;22.93
74321;BMP280;62738;45.772;4.804;2023-06-05T06:42:10;99659.03;;;23.17
74321;BMP280;62738;45.772;4.804;2023-06-05T06:44:37;99659.31;;;23.03
74321;BMP280;62738;45.772;4.804;2023-06-05T06:47:04;99668.13;;;22.91
74321;BMP280;62738;45.772;4.804;2023-06-05T06:49:30;99664.38;;;23.07
74321;BMP280;62738;45.772;4.804;2023-06-05T06:51:57;99655.44;;;23.38
74321;BMP280;62738;45.772;4.804;2023-06-05T06:54:25;99663.56;;;22.61
74321;BMP280;62738;45.772;4.804;2023-06-05T06:56:55;99665.00;;;22.81
74321;BMP280;62738;45.772;4.804;2023-06-05T06:59:22;99662.53;;;23.39
74321;BMP280;62738;45.772;4.804;2023-06-05T07:02:08;99655.53;;;23.66
74321;BMP280;62738;45.772;4.804;2023-06-05T07:04:36;99662.66;;;23.92
74321;BMP280;62738;45.772;4.804;2023-06-05T07:07:03;99663.06;;;24.09
74321;BMP280;62738;45.772;4.804;2023-06-05T07:09:30;99661.13;;;23.89
74321;BMP280;62738;45.772;4.804;2023-06-05T07:11:56;99677.69;;;23.73
74321;BMP280;62738;45.772;4.804;2023-06-05T07:14:25;99676.41;;;23.78
74321;BMP280;62738;45.772;4.804;2023-06-05T07:16:51;99665.78;;;24.02
74321;BMP280;62738;45.772;4.804;2023-06-05T07:19:22;99667.41;;;24.12
74321;BMP280;62738;45.772;4.804;2023-06-05T07:21:49;99670.63;;;24.26
74321;BMP280;62738;45.772;4.804;2023-06-05T07:24:15;99666.66;;;24.65
74321;BMP280;62738;45.772;4.804;2023-06-05T07:26:44;99664.97;;;24.83
74321;BMP280;62738;45.772;4.804;2023-06-05T07:29:11;99663.97;;;25.02
74321;BMP280;62738;45.772;4.804;2023-06-05T07:31:38;99662.78;;;24.82
74321;BMP280;62738;45.772;4.804;2023-06-05T07:34:05;99656.81;;;24.97
74321;BMP280;62738;45.772;4.804;2023-06-05T07:36:32;99663.94;;;24.69
74321;BMP280;62738;45.772;4.804;2023-06-05T07:38:59;99665.13;;;24.89
74321;BMP280;62738;45.772;4.804;2023-06-05T07:41:26;99665.69;;;25.16
74321;BMP280;62738;45.772;4.804;2023-06-05T07:43:53;99663.34;;;25.06
74321;BMP280;62738;45.772;4.804;2023-06-05T07:46:19;99656.22;;;25.37
74321;BMP280;62738;45.772;4.804;2023-06-05T07:48:46;99651.13;;;25.31
74321;BMP280;62738;45.772;4.804;2023-06-05T07:51:13;99644.00;;;25.28
74321;BMP280;62738;45.772;4.804;2023-06-05T07:53:40;99645.09;;;25.15
74321;BMP280;62738;45.772;4.804;2023-06-05T07:56:06;99637.84;;;24.76
74321;BMP280;62738;45.772;4.804;2023-06-05T07:58:33;99638.84;;;25.21
74321;BMP280;62738;45.772;4.804;2023-06-05T08:01:01;99651.00;;;25.25
74321;BMP280;62738;45.772;4.804;2023-06-05T08:03:29;99639.81;;;25.69
74321;BMP280;62738;45.772;4.804;2023-06-05T08:05:56;99639.44;;;25.49
74321;BMP280;62738;45.772;4.804;2023-06-05T08:08:22;99637.63;;;25.30
74321;BMP280;62738;45.772;4.804;2023-06-05T08:10:49;99641.66;;;24.87
74321;BMP280;62738;45.772;4.804;2023-06-05T08:13:16;99643.50;;;25.76
74321;BMP280;62738;45.772;4.804;2023-06-05T08:15:43;99636.34;;;26.10
74321;BMP280;62738;45.772;4.804;2023-06-05T08:18:10;99629.72;;;26.40
74321;BMP280;62738;45.772;4.804;2023-06-05T08:20:37;99631.34;;;26.53
74321;BMP280;62738;45.772;4.804;2023-06-05T08:23:03;99625.44;;;26.87
74321;BMP280;62738;45.772;4.804;2023-06-05T08:25:33;99623.41;;;26.45
74321;BMP280;62738;45.772;4.804;2023-06-05T08:28:00;99615.19;;;27.17
74321;BMP280;62738;45.772;4.804;2023-06-05T08:30:26;99612.00;;;26.93
74321;BMP280;62738;45.772;4.804;2023-06-05T08:32:53;99620.25;;;26.71
74321;BMP280;62738;45.772;4.804;2023-06-05T08:35:20;99616.06;;;26.30
74321;BMP280;62738;45.772;4.804;2023-06-05T08:37:46;99611.50;;;26.13
74321;BMP280;62738;45.772;4.804;2023-06-05T08:40:14;99618.50;;;25.68
74321;BMP280;62738;45.772;4.804;2023-06-05T08:42:41;99613.38;;;25.60
74321;BMP280;62738;45.772;4.804;2023-06-05T08:45:09;99610.69;;;26.50
74321;BMP280;62738;45.772;4.804;2023-06-05T08:47:37;99604.44;;;27.12
74321;BMP280;62738;45.772;4.804;2023-06-05T08:50:06;99607.28;;;26.62
74321;BMP280;62738;45.772;4.804;2023-06-05T08:52:34;99606.56;;;26.61
74321;BMP280;62738;45.772;4.804;2023-06-05T08:55:06;99596.66;;;27.18
74321;BMP280;62738;45.772;4.804;2023-06-05T08:57:34;99603.28;;;25.91
74321;BMP280;62738;45.772;4.804;2023-06-05T09:00:05;99599.00;;;25.88
74321;BMP280;62738;45.772;4.804;2023-06-05T09:02:38;99594.88;;;26.89
74321;BMP280;62738;45.772;4.804;2023-06-05T09:05:07;99593.25;;;27.30
74321;BMP280;62738;45.772;4.804;2023-06-05T09:07:33;99589.50;;;27.15
74321;BMP280;62738;45.772;4.804;2023-06-05T09:10:00;99595.69;;;26.46
74321;BMP280;62738;45.772;4.804;2023-06-05T09:12:27;99595.59;;;26.42
74321;BMP280;62738;45.772;4.804;2023-06-05T09:14:53;99589.63;;;26.69
74321;BMP280;62738;45.772;4.804;2023-06-05T09:17:23;99585.50;;;26.80
74321;BMP280;62738;45.772;4.804;2023-06-05T09:19:50;99596.53;;;26.10
74321;BMP280;62738;45.772;4.804;2023-06-05T09:22:32;99587.63;;;26.32
74321;BMP280;62738;45.772;4.804;2023-06-05T09:25:00;99585.81;;;27.67
74321;BMP280;62738;45.772;4.804;2023-06-05T09:27:27;99580.56;;;28.23
74321;BMP280;62738;45.772;4.804;2023-06-05T09:30:02;99572.13;;;28.41
74321;BMP280;62738;45.772;4.804;2023-06-05T09:32:29;99577.41;;;27.85
74321;BMP280;62738;45.772;4.804;2023-06-05T09:34:57;99579.44;;;28.71
74321;BMP280;62738;45.772;4.804;2023-06-05T09:37:34;99571.75;;;29.05
74321;BMP280;62738;45.772;4.804;2023-06-05T09:40:03;99576.84;;;29.57
74321;BMP280;62738;45.772;4.804;2023-06-05T09:42:32;99570.44;;;29.75
74321;BMP280;62738;45.772;4.804;2023-06-05T09:44:59;99566.16;;;29.64
74321;BMP280;62738;45.772;4.804;2023-06-05T09:47:26;99561.50;;;28.50
74321;BMP280;62738;45.772;4.804;2023-06-05T09:49:58;99556.72;;;29.01
74321;BMP280;62738;45.772;4.804;2023-06-05T09:52:25;99568.31;;;29.53
74321;BMP280;62738;45.772;4.804;2023-06-05T09:54:54;99566.81;;;29.18
74321;BMP280;62738;45.772;4.804;2023-06-05T09:57:24;99564.72;;;29.69
74321;BMP280;62738;45.772;4.804;2023-06-05T09:59:53;99559.63;;;29.25
74321;BMP280;62738;45.772;4.804;2023-06-05T10:02:23;99561.06;;;29.14
74321;BMP280;62738;45.772;4.804;2023-06-05T10:04:57;99564.97;;;28.34
74321;BMP280;62738;45.772;4.804;2023-06-05T10:07:25;99565.31;;;29.05
74321;BMP280;62738;45.772;4.804;2023-06-05T10:09:54;99556.91;;;28.05
74321;BMP280;62738;45.772;4.804;2023-06-05T10:12:21;99559.44;;;28.65
74321;BMP280;62738;45.772;4.804;2023-06-05T10:14:49;99554.84;;;28.13
74321;BMP280;62738;45.772;4.804;2023-06-05T10:17:16;99561.25;;;28.14
74321;BMP280;62738;45.772;4.804;2023-06-05T10:19:44;99550.69;;;28.30
74321;BMP280;62738;45.772;4.804;2023-06-05T10:22:11;99558.72;;;28.66
74321;BMP280;62738;45.772;4.804;2023-06-05T10:24:46;99559.72;;;29.51
74321;BMP280;62738;45.772;4.804;2023-06-05T10:30:09;99556.09;;;30.23
74321;BMP280;62738;45.772;4.804;2023-06-05T10:33:23;99553.97;;;30.12
74321;BMP280;62738;45.772;4.804;2023-06-05T10:38:51;99544.22;;;31.20
74321;BMP280;62738;45.772;4.804;2023-06-05T10:41:18;99537.53;;;31.54
74321;BMP280;62738;45.772;4.804;2023-06-05T10:43:47;99541.75;;;30.35
74321;BMP280;62738;45.772;4.804;2023-06-05T10:49:18;99532.56;;;29.54
74321;BMP280;62738;45.772;4.804;2023-06-05T10:51:52;99536.09;;;30.13
74321;BMP280;62738;45.772;4.804;2023-06-05T10:56:53;99529.00;;;29.76
74321;BMP280;62738;45.772;4.804;2023-06-05T10:59:27;99534.63;;;30.26
74321;BMP280;62738;45.772;4.804;2023-06-05T11:07:16;99515.75;;;31.81
74321;BMP280;62738;45.772;4.804;2023-06-05T11:10:16;99511.72;;;31.50
74321;BMP280;62738;45.772;4.804;2023-06-05T11:12:54;99511.50;;;30.81
74321;BMP280;62738;45.772;4.804;2023-06-05T11:17:54;99506.78;;;29.89
74321;BMP280;62738;45.772;4.804;2023-06-05T11:30:26;99492.19;;;30.77
74321;BMP280;62738;45.772;4.804;2023-06-05T11:33:13;99480.88;;;31.54
74321;BMP280;62738;45.772;4.804;2023-06-05T11:35:41;99484.50;;;31.49
74321;BMP280;62738;45.772;4.804;2023-06-05T11:38:10;99476.84;;;31.23
74321;BMP280;62738;45.772;4.804;2023-06-05T11:40:39;99478.97;;;31.23
74321;BMP280;62738;45.772;4.804;2023-06-05T11:43:07;99480.66;;;30.91
74321;BMP280;62738;45.772;4.804;2023-06-05T11:45:36;99480.84;;;30.55
74321;BMP280;62738;45.772;4.804;2023-06-05T11:48:07;99476.38;;;30.86
74321;BMP280;62738;45.772;4.804;2023-06-05T11:50:35;99474.97;;;31.68
74321;BMP280;62738;45.772;4.804;2023-06-05T11:53:06;99466.69;;;31.36
74321;BMP280;62738;45.772;4.804;2023-06-05T11:55:33;99471.50;;;30.63
74321;BMP280;62738;45.772;4.804;2023-06-05T11:58:21;99459.00;;;31.17
74321;BMP280;62738;45.772;4.804;2023-06-05T12:00:49;99456.91;;;31.82
74321;BMP280;62738;45.772;4.804;2023-06-05T12:03:18;99446.72;;;31.26
74321;BMP280;62738;45.772;4.804;2023-06-05T12:05:46;99446.28;;;31.73
74321;BMP280;62738;45.772;4.804;2023-06-05T12:08:23;99450.47;;;31.04
74321;BMP280;62738;45.772;4.804;2023-06-05T12:10:52;99450.19;;;30.31
74321;BMP280;62738;45.772;4.804;2023-06-05T12:13:19;99455.25;;;30.15
74321;BMP280;62738;45.772;4.804;2023-06-05T12:15:58;99445.91;;;30.30
74321;BMP280;62738;45.772;4.804;2023-06-05T12:18:34;99439.81;;;30.91
74321;BMP280;62738;45.772;4.804;2023-06-05T12:21:01;99440.75;;;30.61
74321;BMP280;62738;45.772;4.804;2023-06-05T12:23:29;99444.28;;;30.62
74321;BMP280;62738;45.772;4.804;2023-06-05T12:26:00;99438.66;;;30.46
74321;BMP280;62738;45.772;4.804;2023-06-05T12:28:28;99446.75;;;29.62
74321;BMP280;62738;45.772;4.804;2023-06-05T12:30:55;99449.56;;;30.01
74321;BMP280;62738;45.772;4.804;2023-06-05T12:33:22;99441.00;;;29.95
74321;BMP280;62738;45.772;4.804;2023-06-05T12:36:05;99448.19;;;29.86
74321;BMP280;62738;45.772;4.804;2023-06-05T12:38:42;99443.16;;;29.82
74321;BMP280;62738;45.772;4.804;2023-06-05T12:41:09;99439.34;;;30.50
74321;BMP280;62738;45.772;4.804;2023-06-05T12:43:35;99440.84;;;30.41
74321;BMP280;62738;45.772;4.804;2023-06-05T12:46:03;99431.72;;;31.22
74321;BMP280;62738;45.772;4.804;2023-06-05T12:48:29;99427.78;;;30.74
74321;BMP280;62738;45.772;4.804;2023-06-05T12:50:57;99424.22;;;30.72
74321;BMP280;62738;45.772;4.804;2023-06-05T12:53:23;99426.44;;;30.51
74321;BMP280;62738;45.772;4.804;2023-06-05T12:55:50;99425.94;;;30.02
74321;BMP280;62738;45.772;4.804;2023-06-05T12:58:17;99423.69;;;30.31
74321;BMP280;62738;45.772;4.804;2023-06-05T13:00:44;99408.94;;;31.06
74321;BMP280;62738;45.772;4.804;2023-06-05T13:03:11;99419.22;;;31.57
74321;BMP280;62738;45.772;4.804;2023-06-05T13:05:39;99403.22;;;31.03
74321;BMP280;62738;45.772;4.804;2023-06-05T13:08:06;99408.47;;;30.69
74321;BMP280;62738;45.772;4.804;2023-06-05T13:10:32;99399.91;;;30.67
74321;BMP280;62738;45.772;4.804;2023-06-05T13:12:59;99407.00;;;30.76
74321;BMP280;62738;45.772;4.804;2023-06-05T13:15:26;99418.72;;;30.19
74321;BMP280;62738;45.772;4.804;2023-06-05T13:17:52;99419.34;;;30.46
74321;BMP280;62738;45.772;4.804;2023-06-05T13:20:19;99411.56;;;30.26
74321;BMP280;62738;45.772;4.804;2023-06-05T13:22:46;99414.09;;;30.83
74321;BMP280;62738;45.772;4.804;2023-06-05T13:25:12;99407.81;;;30.60
74321;BMP280;62738;45.772;4.804;2023-06-05T13:27:39;99404.78;;;30.82
74321;BMP280;62738;45.772;4.804;2023-06-05T13:30:06;99405.53;;;31.62
74321;BMP280;62738;45.772;4.804;2023-06-05T13:32:34;99403.66;;;31.99
74321;BMP280;62738;45.772;4.804;2023-06-05T13:35:01;99399.47;;;31.90
74321;BMP280;62738;45.772;4.804;2023-06-05T13:37:27;99385.75;;;31.32
74321;BMP280;62738;45.772;4.804;2023-06-05T13:39:54;99391.13;;;31.66
74321;BMP280;62738;45.772;4.804;2023-06-05T13:42:21;99393.59;;;30.44
74321;BMP280;62738;45.772;4.804;2023-06-05T13:44:47;99392.88;;;30.46
74321;BMP280;62738;45.772;4.804;2023-06-05T13:47:14;99389.75;;;30.82
74321;BMP280;62738;45.772;4.804;2023-06-05T13:49:41;99382.84;;;30.47
74321;BMP280;62738;45.772;4.804;2023-06-05T13:52:08;99391.09;;;30.95
74321;BMP280;62738;45.772;4.804;2023-06-05T13:54:34;99388.44;;;30.67
74321;BMP280;62738;45.772;4.804;2023-06-05T13:57:01;99389.91;;;31.45
74321;BMP280;62738;45.772;4.804;2023-06-05T13:59:29;99392.91;;;31.35
74321;BMP280;62738;45.772;4.804;2023-06-05T14:01:56;99395.94;;;31.86
74321;BMP280;62738;45.772;4.804;2023-06-05T14:04:23;99403.97;;;31.00
74321;BMP280;62738;45.772;4.804;2023-06-05T14:06:49;99413.78;;;30.12
74321;BMP280;62738;45.772;4.804;2023-06-05T14:09:16;99406.69;;;29.87
74321;BMP280;62738;45.772;4.804;2023-06-05T14:11:44;99404.88;;;30.70
74321;BMP280;62738;45.772;4.804;2023-06-05T14:14:11;99411.06;;;29.51
74321;BMP280;62738;45.772;4.804;2023-06-05T14:16:38;99413.84;;;28.61
74321;BMP280;62738;45.772;4.804;2023-06-05T14:19:05;99414.44;;;28.23
74321;BMP280;62738;45.772;4.804;2023-06-05T14:21:31;99413.06;;;28.42
74321;BMP280;62738;45.772;4.804;2023-06-05T14:23:58;99411.72;;;29.80
74321;BMP280;62738;45.772;4.804;2023-06-05T14:26:25;99397.44;;;29.84
74321;BMP280;62738;45.772;4.804;2023-06-05T14:28:52;99404.56;;;28.56
74321;BMP280;62738;45.772;4.804;2023-06-05T14:31:18;99398.16;;;28.62
74321;BMP280;62738;45.772;4.804;2023-06-05T14:33:46;99393.78;;;28.44
74321;BMP280;62738;45.772;4.804;2023-06-05T14:36:12;99388.94;;;29.05
74321;BMP280;62738;45.772;4.804;2023-06-05T14:38:41;99376.28;;;30.62
74321;BMP280;62738;45.772;4.804;2023-06-05T14:41:08;99371.59;;;30.02
74321;BMP280;62738;45.772;4.804;2023-06-05T14:43:35;99378.09;;;28.33
74321;BMP280;62738;45.772;4.804;2023-06-05T14:46:01;99379.59;;;28.59
74321;BMP280;62738;45.772;4.804;2023-06-05T14:48:30;99378.94;;;29.10
74321;BMP280;62738;45.772;4.804;2023-06-05T14:50:57;99364.63;;;29.12
74321;BMP280;62738;45.772;4.804;2023-06-05T14:53:24;99355.78;;;30.23
74321;BMP280;62738;45.772;4.804;2023-06-05T14:55:51;99358.59;;;31.27
74321;BMP280;62738;45.772;4.804;2023-06-05T14:58:17;99362.63;;;33.41
74321;BMP280;62738;45.772;4.804;2023-06-05T15:00:45;99341.84;;;32.57
74321;BMP280;62738;45.772;4.804;2023-06-05T15:03:12;99351.59;;;31.08
74321;BMP280;62738;45.772;4.804;2023-06-05T15:05:39;99345.22;;;31.68
74321;BMP280;62738;45.772;4.804;2023-06-05T15:08:06;99342.34;;;34.15
74321;BMP280;62738;45.772;4.804;2023-06-05T15:10:33;99343.63;;;36.50
74321;BMP280;62738;45.772;4.804;2023-06-05T15:12:59;99354.22;;;34.31
74321;BMP280;62738;45.772;4.804;2023-06-05T15:15:26;99354.19;;;36.14
74321;BMP280;62738;45.772;4.804;2023-06-05T15:17:53;99344.31;;;40.55
74321;BMP280;62738;45.772;4.804;2023-06-05T15:20:20;99349.66;;;39.63
74321;BMP280;62738;45.772;4.804;2023-06-05T15:22:52;99352.22;;;36.29
74321;BMP280;62738;45.772;4.804;2023-06-05T15:25:40;99335.88;;;36.44
74321;BMP280;62738;45.772;4.804;2023-06-05T15:28:06;99336.31;;;38.24
74321;BMP280;62738;45.772;4.804;2023-06-05T15:30:33;99320.56;;;37.84
74321;BMP280;62738;45.772;4.804;2023-06-05T15:33:00;99311.66;;;33.38
74321;BMP280;62738;45.772;4.804;2023-06-05T15:35:27;99307.88;;;32.70
74321;BMP280;62738;45.772;4.804;2023-06-05T15:37:54;99305.41;;;32.88
74321;BMP280;62738;45.772;4.804;2023-06-05T15:40:21;99292.03;;;31.79
74321;BMP280;62738;45.772;4.804;2023-06-05T15:43:03;99302.47;;;32.90
74321;BMP280;62738;45.772;4.804;2023-06-05T15:45:31;99300.88;;;33.71
74321;BMP280;62738;45.772;4.804;2023-06-05T15:47:59;99292.03;;;33.48
74321;BMP280;62738;45.772;4.804;2023-06-05T15:50:27;99293.63;;;33.74